createdAt,value
2018-06-19T00:02:14.626Z,100408.62
2018-06-19T00:04:42.210Z,100411.16
2018-06-19T00:07:10.518Z,100408.28
2018-06-19T00:09:38.118Z,100406.77
2018-06-19T00:12:05.694Z,100411.35
2018-06-19T00:14:34.194Z,100402.89
2018-06-19T00:17:02.395Z,100407.97
2018-06-19T00:19:30.650Z,100410.67
2018-06-19T00:21:58.264Z,100408.61
2018-06-19T00:24:25.886Z,100412.18
2018-06-19T00:26:53.755Z,100419.95
2018-06-19T00:29:21.365Z,100406.27
2018-06-19T00:31:48.932Z,100405.08
2018-06-19T00:34:16.813Z,100417.77
2018-06-19T00:36:44.398Z,100422.84
2018-06-19T00:39:13.260Z,100418.78
2018-06-19T00:41:41.780Z,100411.86
2018-06-19T00:44:10.162Z,100415.38
2018-06-19T00:46:37.754Z,100411.84
2018-06-19T00:49:05.314Z,100420.30
2018-06-19T00:51:32.934Z,100412.86
2018-06-19T00:54:00.786Z,100418.42
2018-06-19T00:56:28.417Z,100416.73
2018-06-19T00:58:56.040Z,100419.63
2018-06-19T01:01:23.650Z,100421.48
2018-06-19T01:03:51.534Z,100429.25
2018-06-19T01:06:19.121Z,100431.78
2018-06-19T01:08:46.702Z,100430.92
2018-06-19T01:11:14.970Z,100426.72
2018-06-19T01:13:42.838Z,100430.59
2018-06-19T01:16:10.414Z,100429.93
2018-06-19T01:18:38.671Z,100431.93
2018-06-19T01:21:07.066Z,100428.89
2018-06-19T01:23:34.690Z,100433.47
2018-06-19T01:26:02.257Z,100424.17
2018-06-19T01:28:29.867Z,100428.54
2018-06-19T01:30:57.725Z,100428.39
2018-06-19T01:33:25.310Z,100423.30
2018-06-19T01:35:54.301Z,100417.91
2018-06-19T01:38:21.875Z,100424.33
2018-06-19T01:40:49.845Z,100434.28
2018-06-19T01:43:17.446Z,100432.59
2018-06-19T01:45:45.024Z,100424.31
2018-06-19T01:48:12.656Z,100424.47
2018-06-19T01:50:40.271Z,100421.77
2018-06-19T01:53:07.851Z,100418.21
2018-06-19T01:55:35.705Z,100417.55
2018-06-19T01:58:03.305Z,100415.67
2018-06-19T02:00:30.899Z,100425.47
2018-06-19T02:02:58.494Z,100423.08
2018-06-19T02:05:26.382Z,100419.34
2018-06-19T02:07:53.986Z,100423.70
2018-06-19T02:10:21.583Z,100417.30
2018-06-19T02:12:49.146Z,100413.92
2018-06-19T02:15:17.014Z,100405.11
2018-06-19T02:17:44.658Z,100416.93
2018-06-19T02:20:12.251Z,100408.16
2018-06-19T02:22:39.819Z,100415.58
2018-06-19T02:25:07.889Z,100417.77
2018-06-19T02:27:35.462Z,100415.74
2018-06-19T02:30:03.051Z,100412.86
2018-06-19T02:32:30.882Z,100410.65
2018-06-19T02:34:58.529Z,100410.31
2018-06-19T02:37:26.106Z,100414.85
2018-06-19T02:39:53.679Z,100410.80
2018-06-19T02:42:21.527Z,100417.55
2018-06-19T02:44:49.099Z,100418.27
2018-06-19T02:47:16.691Z,100422.80
2018-06-19T02:49:44.535Z,100430.41
2018-06-19T02:52:12.264Z,100428.05
2018-06-19T02:54:40.498Z,100429.05
2018-06-19T02:57:08.542Z,100429.39
2018-06-19T02:59:36.651Z,100433.44
2018-06-19T03:02:04.426Z,100432.09
2018-06-19T03:04:32.074Z,100436.48
2018-06-19T03:06:59.952Z,100439.18
2018-06-19T03:09:27.540Z,100441.72
2018-06-19T03:11:55.110Z,100441.54
2018-06-19T03:14:22.970Z,100446.45
2018-06-19T03:16:50.546Z,100445.95
2018-06-19T03:19:18.209Z,100442.92
2018-06-19T03:21:45.786Z,100444.61
2018-06-19T03:24:13.634Z,100446.48
2018-06-19T03:26:41.211Z,100456.27
2018-06-19T03:29:09.738Z,100455.92
2018-06-19T03:31:37.563Z,100457.09
2018-06-19T03:34:05.396Z,100456.75
2018-06-19T03:36:33.630Z,100452.70
2018-06-19T03:39:01.554Z,100453.38
2018-06-19T03:41:29.155Z,100445.09
2018-06-19T03:43:57.209Z,100443.75
2018-06-19T03:46:24.758Z,100456.05
2018-06-19T03:48:52.358Z,100457.40
2018-06-19T03:51:20.870Z,100458.27
2018-06-19T03:53:48.766Z,100462.16
2018-06-19T03:56:16.325Z,100461.78
2018-06-19T03:58:43.931Z,100467.55
2018-06-19T04:01:11.506Z,100465.84
2018-06-19T04:03:39.545Z,100464.48
2018-06-19T04:06:07.901Z,100465.84
2018-06-19T04:08:35.488Z,100479.33
2018-06-19T04:11:03.089Z,100476.30
2018-06-19T04:13:31.005Z,100474.13
2018-06-19T04:15:59.091Z,100485.41
2018-06-19T04:18:26.673Z,100489.80
2018-06-19T04:20:55.154Z,100483.05
2018-06-19T04:23:23.345Z,100487.62
2018-06-19T04:25:51.739Z,100495.53
2018-06-19T04:28:19.593Z,100497.22
2018-06-19T04:30:47.154Z,100484.06
2018-06-19T04:33:14.750Z,100489.45
2018-06-19T04:35:42.702Z,100489.45
2018-06-19T04:38:10.261Z,100490.81
2018-06-19T04:40:37.830Z,100493.84
2018-06-19T04:43:05.679Z,100493.32
2018-06-19T04:45:33.234Z,100499.58
2018-06-19T04:48:00.795Z,100499.43
2018-06-19T04:50:28.346Z,100500.26
2018-06-19T04:52:57.908Z,100503.97
2018-06-19T04:55:25.918Z,100501.27
2018-06-19T04:57:53.514Z,100507.01
2018-06-19T05:00:21.090Z,100504.30
2018-06-19T05:02:48.938Z,100508.51
2018-06-19T05:05:16.489Z,100507.68
2018-06-19T05:07:44.066Z,100501.76
2018-06-19T05:10:11.919Z,100510.56
2018-06-19T05:12:39.494Z,100499.43
2018-06-19T05:15:07.078Z,100501.27
2018-06-19T05:17:34.946Z,100508.84
2018-06-19T05:20:03.119Z,100503.94
2018-06-19T05:22:31.585Z,100503.94
2018-06-19T05:24:59.419Z,100503.94
2018-06-19T05:27:26.982Z,100504.98
2018-06-19T05:29:57.545Z,100503.62
2018-06-19T05:32:25.450Z,100511.20
2018-06-19T05:34:54.679Z,100508.02
2018-06-19T05:37:22.266Z,100506.67
2018-06-19T05:39:50.150Z,100512.06
2018-06-19T05:42:17.738Z,100510.38
2018-06-19T05:44:46.206Z,100506.70
2018-06-19T05:47:14.369Z,100511.92
2018-06-19T05:49:41.967Z,100511.77
2018-06-19T05:52:09.558Z,100522.91
2018-06-19T05:54:37.459Z,100524.25
2018-06-19T05:57:05.714Z,100532.69
2018-06-19T05:59:33.322Z,100542.14
2018-06-19T06:02:01.219Z,100533.22
2018-06-19T06:04:28.819Z,100537.08
2018-06-19T06:06:56.419Z,100537.78
2018-06-19T06:09:24.279Z,100535.92
2018-06-19T06:11:51.855Z,100538.62
2018-06-19T06:14:19.466Z,100541.16
2018-06-19T06:16:47.659Z,100541.16
2018-06-19T06:19:16.276Z,100543.86
2018-06-19T06:21:43.846Z,100545.55
2018-06-19T06:24:13.311Z,100545.55
2018-06-19T06:26:40.874Z,100545.06
2018-06-19T06:29:08.677Z,100549.94
2018-06-19T06:31:37.384Z,100554.85
2018-06-19T06:34:04.974Z,100567.34
2018-06-19T06:36:32.594Z,100564.30
2018-06-19T06:39:00.498Z,100560.44
2018-06-19T06:41:28.084Z,100567.83
2018-06-19T06:43:56.837Z,100570.05
2018-06-19T06:46:25.625Z,100567.34
2018-06-19T06:48:53.331Z,100573.94
2018-06-19T06:51:20.995Z,100571.06
2018-06-19T06:53:49.742Z,100568.87
2018-06-19T06:56:17.338Z,100576.98
2018-06-19T06:58:45.978Z,100583.73
2018-06-19T07:01:13.946Z,100583.39
2018-06-19T07:03:41.589Z,100579.34
2018-06-19T07:06:09.198Z,100582.20
2018-06-19T07:08:37.118Z,100585.05
2018-06-19T07:11:04.735Z,100583.84
2018-06-19T07:13:32.352Z,100589.92
2018-06-19T07:16:00.348Z,100583.69
2018-06-19T07:18:27.946Z,100589.58
2018-06-19T07:20:57.220Z,100590.78
2018-06-19T07:23:25.083Z,100593.30
2018-06-19T07:25:52.740Z,100593.15
2018-06-19T07:28:20.374Z,100596.19
2018-06-19T07:30:49.112Z,100596.19
2018-06-19T07:33:16.731Z,100595.55
2018-06-19T07:35:44.369Z,100597.58
2018-06-19T07:38:13.125Z,100597.91
2018-06-19T07:40:41.479Z,100596.27
2018-06-19T07:43:11.908Z,100595.63
2018-06-19T07:45:39.842Z,100600.34
2018-06-19T07:48:09.050Z,100587.52
2018-06-19T07:50:36.652Z,100592.25
2018-06-19T07:53:04.579Z,100599.37
2018-06-19T07:55:32.961Z,100597.02
2018-06-19T07:58:00.564Z,100599.04
2018-06-19T08:00:28.427Z,100605.64
2018-06-19T08:02:56.559Z,100599.71
2018-06-19T08:05:25.858Z,100611.56
2018-06-19T08:07:53.714Z,100609.87
2018-06-19T08:10:21.305Z,100613.26
2018-06-19T08:12:49.618Z,100616.67
2018-06-19T08:15:17.787Z,100616.82
2018-06-19T08:17:45.446Z,100618.51
2018-06-19T08:20:13.386Z,100633.22
2018-06-19T08:22:42.465Z,100632.69
2018-06-19T08:25:11.363Z,100634.69
2018-06-19T08:27:38.962Z,100638.40
2018-06-19T08:30:07.797Z,100641.96
2018-06-19T08:32:35.398Z,100644.66
2018-06-19T08:35:02.993Z,100643.31
2018-06-19T08:37:32.232Z,100645.48
2018-06-19T08:39:59.848Z,100647.70
2018-06-19T08:42:28.349Z,100637.23
2018-06-19T08:44:58.230Z,100637.57
2018-06-19T08:47:25.801Z,100647.37
2018-06-19T08:49:56.750Z,100651.95
2018-06-19T08:52:24.449Z,100647.06
2018-06-19T08:54:53.209Z,100649.24
2018-06-19T08:57:21.099Z,100649.58
2018-06-19T08:59:48.739Z,100650.94
2018-06-19T09:02:16.330Z,100653.48
2018-06-19T09:04:44.173Z,100653.48
2018-06-19T09:07:11.750Z,100654.50
2018-06-19T09:09:39.325Z,100664.30
2018-06-19T09:12:07.257Z,100660.23
2018-06-19T09:14:35.100Z,100667.03
2018-06-19T09:17:02.712Z,100670.03
2018-06-19T09:19:31.086Z,100670.89
2018-06-19T09:21:59.315Z,100673.78
2018-06-19T09:24:27.618Z,100666.84
2018-06-19T09:26:55.494Z,100672.09
2018-06-19T09:29:23.342Z,100675.33
2018-06-19T09:31:50.919Z,100670.45
2018-06-19T09:34:19.630Z,100670.78
2018-06-19T09:36:47.317Z,100677.87
2018-06-19T09:39:15.076Z,100673.83
2018-06-19T09:41:46.120Z,100672.28
2018-06-19T09:44:16.657Z,100673.83
2018-06-19T09:46:45.650Z,100671.83
2018-06-19T09:49:13.546Z,100670.63
2018-06-19T09:51:42.855Z,100669.12
2018-06-19T09:54:10.449Z,100672.02
2018-06-19T09:56:39.349Z,100670.85
2018-06-19T09:59:06.970Z,100670.02
2018-06-19T10:01:34.854Z,100670.20
2018-06-19T10:04:02.745Z,100673.59
2018-06-19T10:06:30.399Z,100672.23
2018-06-19T10:08:58.700Z,100672.39
2018-06-19T10:11:27.094Z,100673.25
2018-06-19T10:13:54.778Z,100676.78
2018-06-19T10:16:23.008Z,100675.61
2018-06-19T10:18:51.044Z,100676.26
2018-06-19T10:21:19.415Z,100676.26
2018-06-19T10:23:47.181Z,100682.00
2018-06-19T10:26:15.105Z,100686.24
2018-06-19T10:28:43.527Z,100685.59
2018-06-19T10:31:11.950Z,100693.19
2018-06-19T10:33:40.450Z,100695.40
2018-06-19T10:36:08.043Z,100689.47
2018-06-19T10:38:35.666Z,100690.82
2018-06-19T10:41:03.601Z,100691.69
2018-06-19T10:43:31.265Z,100696.56
2018-06-19T10:45:59.926Z,100693.52
2018-06-19T10:48:28.506Z,100697.24
2018-06-19T10:50:57.390Z,100698.93
2018-06-19T10:53:28.954Z,100691.50
2018-06-19T10:55:57.150Z,100694.87
2018-06-19T10:58:24.726Z,100691.87
2018-06-19T11:00:54.199Z,100690.67
2018-06-19T11:03:23.018Z,100694.91
2018-06-19T11:05:50.667Z,100697.30
2018-06-19T11:08:18.288Z,100697.48
2018-06-19T11:10:46.432Z,100701.09
2018-06-19T11:13:14.730Z,100696.20
2018-06-19T11:15:43.519Z,100702.13
2018-06-19T11:18:11.393Z,100700.11
2018-06-19T11:20:38.986Z,100688.64
2018-06-19T11:23:06.577Z,100692.53
2018-06-19T11:25:34.475Z,100693.23
2018-06-19T11:28:05.207Z,100693.74
2018-06-19T11:30:33.784Z,100694.75
2018-06-19T11:33:02.742Z,100690.01
2018-06-19T11:35:30.522Z,100692.41
2018-06-19T11:38:00.261Z,100692.41
2018-06-19T11:40:28.286Z,100689.34
2018-06-19T11:42:57.066Z,100698.83
2018-06-19T11:45:25.338Z,100699.16
2018-06-19T11:47:53.507Z,100698.51
2018-06-19T11:50:22.254Z,100695.12
2018-06-19T11:52:51.410Z,100695.30
2018-06-19T11:55:19.546Z,100697.16
2018-06-19T11:57:47.664Z,100702.56
2018-06-19T12:00:15.298Z,100699.54
2018-06-19T12:02:43.191Z,100701.03
2018-06-19T12:05:10.823Z,100698.84
2018-06-19T12:07:40.184Z,100698.70
2018-06-19T12:10:08.226Z,100694.98
2018-06-19T12:12:35.858Z,100689.58
2018-06-19T12:15:03.534Z,100697.88
2018-06-19T12:17:32.618Z,100691.45
2018-06-19T12:20:01.166Z,100689.90
2018-06-19T12:22:29.627Z,100687.36
2018-06-19T12:24:57.502Z,100687.03
2018-06-19T12:27:25.191Z,100686.87
2018-06-19T12:29:52.911Z,100685.69
2018-06-19T12:32:22.501Z,100693.46
2018-06-19T12:34:51.191Z,100690.40
2018-06-19T12:37:18.816Z,100684.66
2018-06-19T12:39:47.850Z,100685.33
2018-06-19T12:42:20.245Z,100690.23
2018-06-19T12:44:49.671Z,100683.77
2018-06-19T12:47:18.567Z,100688.34
2018-06-19T12:52:31.639Z,100688.84
2018-06-19T12:54:59.251Z,100686.80
2018-06-19T12:57:28.050Z,100694.61
2018-06-19T12:59:55.991Z,100695.77
2018-06-19T13:02:23.579Z,100687.14
2018-06-19T13:04:53.520Z,100696.27
2018-06-19T13:07:22.152Z,100692.04
2018-06-19T13:09:49.735Z,100692.20
2018-06-19T13:12:18.362Z,100697.60
2018-06-19T13:14:47.116Z,100694.39
2018-06-19T13:17:14.762Z,100693.04
2018-06-19T13:19:43.462Z,100693.37
2018-06-19T13:22:11.336Z,100691.66
2018-06-19T13:24:40.374Z,100702.34
2018-06-19T13:27:07.972Z,100695.39
2018-06-19T13:29:36.367Z,100698.61
2018-06-19T13:32:05.273Z,100695.53
2018-06-19T13:34:33.855Z,100689.58
2018-06-19T13:37:03.191Z,100691.95
2018-06-19T13:39:30.759Z,100687.85
2018-06-19T13:41:58.360Z,100692.42
2018-06-19T13:44:27.091Z,100690.90
2018-06-19T13:46:54.675Z,100688.02
2018-06-19T13:49:24.152Z,100687.48
2018-06-19T13:51:53.738Z,100699.36
2018-06-19T13:54:23.230Z,100698.17
2018-06-19T13:56:51.408Z,100698.37
2018-06-19T13:59:21.561Z,100693.94
2018-06-19T14:01:49.228Z,100688.52
2018-06-19T14:04:16.827Z,100692.09
2018-06-19T14:06:44.706Z,100688.88
2018-06-19T14:09:12.347Z,100685.64
2018-06-19T14:11:40.506Z,100687.85
2018-06-19T14:14:10.370Z,100681.07
2018-06-19T14:16:38.816Z,100681.07
2018-06-19T14:19:06.439Z,100686.50
2018-06-19T14:21:34.334Z,100677.50
2018-06-19T14:24:01.919Z,100675.45
2018-06-19T14:29:04.457Z,100677.83
2018-06-19T14:31:33.468Z,100680.38
2018-06-19T14:34:02.254Z,100678.48
2018-06-19T14:36:30.886Z,100681.85
2018-06-19T14:38:58.553Z,100672.81
2018-06-19T14:41:26.406Z,100666.14
2018-06-19T14:43:56.931Z,100669.97
2018-06-19T14:46:25.744Z,100667.36
2018-06-19T14:48:53.550Z,100669.52
2018-06-19T14:51:23.557Z,100675.27
2018-06-19T14:56:18.618Z,100679.28
2018-06-19T14:58:46.590Z,100678.96
2018-06-19T15:01:16.430Z,100676.95
2018-06-19T15:03:44.639Z,100671.86
2018-06-19T15:06:13.414Z,100674.95
2018-06-19T15:08:41.982Z,100671.91
2018-06-19T15:11:09.566Z,100677.51
2018-06-19T15:13:40.210Z,100679.72
2018-06-19T15:16:07.784Z,100675.12
2018-06-19T15:18:35.414Z,100673.77
2018-06-19T15:21:03.278Z,100678.53
2018-06-19T15:23:31.563Z,100683.31
2018-06-19T15:26:01.454Z,100675.34
2018-06-19T15:28:31.309Z,100672.79
2018-06-19T15:30:59.762Z,100674.02
2018-06-19T15:33:27.347Z,100678.42
2018-06-19T15:35:57.061Z,100672.99
2018-06-19T15:38:25.410Z,100675.02
2018-06-19T15:40:52.994Z,100665.19
2018-06-19T15:43:20.922Z,100678.44
2018-06-19T15:45:49.097Z,100672.68
2018-06-19T15:48:17.844Z,100660.27
2018-06-19T15:50:45.693Z,100665.91
2018-06-19T15:53:14.399Z,100664.19
2018-06-19T15:55:43.213Z,100665.91
2018-06-19T15:58:11.901Z,100659.12
2018-06-19T16:00:40.015Z,100664.02
2018-06-19T16:03:07.617Z,100663.19
2018-06-19T16:05:35.503Z,100660.11
2018-06-19T16:08:08.138Z,100666.57
2018-06-19T16:10:35.710Z,100658.42
2018-06-19T16:13:25.347Z,100662.17
2018-06-19T16:15:56.258Z,100656.58
2018-06-19T16:18:24.819Z,100655.75
2018-06-19T16:20:52.417Z,100654.07
2018-06-19T16:23:20.218Z,100651.03
2018-06-19T16:25:48.515Z,100652.38
2018-06-19T16:28:16.254Z,100657.11
2018-06-19T16:30:43.919Z,100656.41
2018-06-19T16:33:11.895Z,100656.74
2018-06-19T16:35:39.495Z,100657.11
2018-06-19T16:38:09.552Z,100660.53
2018-06-19T16:40:39.542Z,100659.67
2018-06-19T16:43:10.770Z,100664.06
2018-06-19T16:45:44.554Z,100663.73
2018-06-19T16:48:12.197Z,100662.55
2018-06-19T16:50:39.889Z,100664.44
2018-06-19T16:53:07.870Z,100658.68
2018-06-19T16:55:35.465Z,100659.84
2018-06-19T16:58:03.732Z,100663.58
2018-06-19T17:00:31.659Z,100656.47
2018-06-19T17:02:59.460Z,100660.53
2018-06-19T17:05:27.763Z,100656.14
2018-06-19T17:07:57.449Z,100654.25
2018-06-19T17:10:28.625Z,100657.99
2018-06-19T17:12:57.742Z,100656.64
2018-06-19T17:15:26.889Z,100654.13
2018-06-19T17:18:00.540Z,100661.91
2018-06-19T17:20:31.778Z,100656.84
2018-06-19T17:23:01.392Z,100654.29
2018-06-19T17:25:31.066Z,100653.11
2018-06-19T17:27:58.675Z,100656.14
2018-06-19T17:33:00.552Z,100653.80
2018-06-19T17:35:28.446Z,100659.73
2018-06-19T17:38:00.031Z,100656.69
2018-06-19T17:40:28.446Z,100656.19
2018-06-19T17:42:56.949Z,100659.40
2018-06-19T17:45:25.698Z,100656.36
2018-06-19T17:47:54.198Z,100648.75
2018-06-19T17:50:22.399Z,100650.77
2018-06-19T17:52:52.085Z,100648.59
2018-06-19T17:55:19.675Z,100649.08
2018-06-19T17:57:48.222Z,100650.11
2018-06-19T18:00:16.162Z,100645.71
2018-06-19T18:02:44.396Z,100649.78
2018-06-19T18:05:11.980Z,100642.67
2018-06-19T18:07:40.562Z,100650.48
2018-06-19T18:10:08.154Z,100644.36
2018-06-19T18:12:40.073Z,100647.08
2018-06-19T18:15:08.072Z,100648.97
2018-06-19T18:17:36.292Z,100656.24
2018-06-19T18:20:04.780Z,100658.30
2018-06-19T18:22:33.084Z,100656.61
2018-06-19T18:25:01.421Z,100649.50
2018-06-19T18:27:29.638Z,100648.47
2018-06-19T18:29:59.195Z,100639.14
2018-06-19T18:32:27.355Z,100641.69
2018-06-19T18:34:56.240Z,100638.31
2018-06-19T18:37:25.900Z,100638.48
2018-06-19T18:39:54.011Z,100637.63
2018-06-19T18:42:22.209Z,100642.39
2018-06-19T18:44:50.662Z,100641.73
2018-06-19T18:47:18.287Z,100645.27
2018-06-19T18:49:46.653Z,100646.13
2018-06-19T18:54:52.641Z,100643.92
2018-06-19T18:57:23.419Z,100647.16
2018-06-19T18:59:52.261Z,100643.92
2018-06-19T19:02:20.593Z,100647.16
2018-06-19T19:04:48.748Z,100658.17
2018-06-19T19:07:16.602Z,100657.68
2018-06-19T19:09:49.679Z,100664.09
2018-06-19T19:12:17.527Z,100656.98
2018-06-19T19:14:51.337Z,100657.19
2018-06-19T19:17:23.982Z,100656.33
2018-06-19T19:19:51.654Z,100657.69
2018-06-19T19:22:20.206Z,100659.20
2018-06-19T19:24:47.810Z,100657.03
2018-06-19T19:27:20.538Z,100654.81
2018-06-19T19:32:24.466Z,100647.86
2018-06-19T19:34:55.262Z,100655.67
2018-06-19T19:37:28.078Z,100657.03
2018-06-19T19:39:55.674Z,100660.77
2018-06-19T19:42:23.454Z,100658.75
2018-06-19T19:44:51.334Z,100658.91
2018-06-19T19:47:24.026Z,100657.06
2018-06-19T19:49:52.302Z,100663.52
2018-06-19T19:52:21.288Z,100664.17
2018-06-19T19:54:50.493Z,100669.27
2018-06-19T19:57:23.955Z,100674.70
2018-06-19T19:59:52.897Z,100678.96
2018-06-19T20:02:21.747Z,100672.34
2018-06-19T20:04:49.757Z,100671.48
2018-06-19T20:07:19.471Z,100680.64
2018-06-19T20:09:47.623Z,100682.53
2018-06-19T20:12:15.243Z,100684.22
2018-06-19T20:14:48.157Z,100683.02
2018-06-19T20:17:15.767Z,100685.91
2018-06-19T20:19:44.562Z,100685.57
2018-06-19T20:22:15.028Z,100691.16
2018-06-19T20:24:46.434Z,100698.09
2018-06-19T20:27:14.282Z,100688.81
2018-06-19T20:29:44.551Z,100686.27
2018-06-19T20:32:14.039Z,100690.33
2018-06-19T20:34:41.883Z,100701.17
2018-06-19T20:37:16.469Z,100700.84
2018-06-19T20:39:46.421Z,100699.16
2018-06-19T20:42:19.118Z,100701.50
2018-06-19T20:44:46.723Z,100698.98
2018-06-19T20:47:19.459Z,100699.48
2018-06-19T20:49:51.005Z,100701.86
2018-06-19T20:52:20.379Z,100706.95
2018-06-19T20:54:52.323Z,100704.73
2018-06-19T20:57:22.447Z,100704.92
2018-06-19T20:59:50.108Z,100694.74
2018-06-19T21:02:17.731Z,100699.83
2018-06-19T21:04:45.630Z,100701.38
2018-06-19T21:07:14.051Z,100701.55
2018-06-19T21:12:41.626Z,100705.11
2018-06-19T21:15:12.186Z,100699.36
2018-06-19T21:17:41.625Z,100698.16
2018-06-19T21:20:10.210Z,100694.78
2018-06-19T21:22:37.850Z,100698.16
2018-06-19T21:25:06.222Z,100695.64
2018-06-19T21:27:34.079Z,100695.80
2018-06-19T21:30:02.820Z,100701.91
2018-06-19T21:32:31.793Z,100699.89
2018-06-19T21:35:02.131Z,100696.81
2018-06-19T21:37:30.270Z,100700.88
2018-06-19T21:39:57.870Z,100699.20
2018-06-19T21:42:25.902Z,100693.97
2018-06-19T21:44:55.694Z,100696.31
2018-06-19T21:47:26.469Z,100692.77
2018-06-19T21:49:54.311Z,100699.71
2018-06-19T21:52:24.366Z,100701.23
2018-06-19T21:54:55.754Z,100697.36
2018-06-19T21:57:23.655Z,100693.45
2018-06-19T21:59:51.245Z,100694.63
2018-06-19T22:02:25.887Z,100694.30
2018-06-19T22:04:53.784Z,100694.46
2018-06-19T22:07:21.590Z,100693.63
2018-06-19T22:09:50.910Z,100691.61
2018-06-19T22:12:20.090Z,100686.02
2018-06-19T22:14:47.663Z,100686.36
2018-06-19T22:17:15.389Z,100683.31
2018-06-19T22:19:43.231Z,100685.16
2018-06-19T22:22:10.799Z,100683.47
2018-06-19T22:24:38.390Z,100683.14
2018-06-19T22:27:06.249Z,100685.52
2018-06-19T22:29:33.877Z,100680.59
2018-06-19T22:32:01.643Z,100689.24
2018-06-19T22:34:32.254Z,100686.20
2018-06-19T22:37:00.938Z,100684.48
2018-06-19T22:39:29.107Z,100683.12
2018-06-19T22:41:58.478Z,100681.97
2018-06-19T22:44:26.859Z,100686.36
2018-06-19T22:46:55.498Z,100682.80
2018-06-19T22:49:25.423Z,100680.61
2018-06-19T22:51:53.023Z,100681.63
2018-06-19T22:54:20.595Z,100688.73
2018-06-19T22:56:48.486Z,100684.67
2018-06-19T22:59:16.110Z,100677.20
2018-06-19T23:01:44.226Z,100679.09
2018-06-19T23:04:11.834Z,100680.93
2018-06-19T23:06:40.368Z,100682.81
2018-06-19T23:09:09.582Z,100677.39
2018-06-19T23:11:38.129Z,100683.15
2018-06-19T23:14:05.977Z,100680.11
2018-06-19T23:16:33.566Z,100682.81
2018-06-19T23:19:01.137Z,100684.66
2018-06-19T23:21:28.719Z,100678.42
2018-06-19T23:23:56.559Z,100682.97
2018-06-19T23:26:24.421Z,100683.13
2018-06-19T23:28:53.814Z,100680.76
2018-06-19T23:31:22.470Z,100683.13
2018-06-19T23:33:50.055Z,100674.87
2018-06-19T23:36:18.492Z,100677.05
2018-06-19T23:38:46.074Z,100680.28
2018-06-19T23:41:14.702Z,100674.34
2018-06-19T23:43:42.270Z,100672.16
2018-06-19T23:46:09.859Z,100671.30
2018-06-19T23:48:37.450Z,100671.76
2018-06-19T23:51:05.310Z,100665.52
2018-06-19T23:53:32.878Z,100669.58
2018-06-19T23:56:00.451Z,100669.73
2018-06-19T23:58:28.304Z,100668.05
